Time;durP1;ratioP1;P1;durP2;ratioP2;P2;SDS_P1;SDS_P2;PMS_P1;PMS_P2;Temp;Humidity;BMP_temperature;BMP_pressure;BME280_temperature;BME280_humidity;BME280_pressure;Samples;Min_cycle;Max_cycle;Signal;HPM_P1;HPM_P2
2022/04/20 00:01:42;;;;;;;;;;;20.60;99.90;;;;;;5001453;28;19934;-61
2022/04/20 00:04:11;;;;;;;;;;;20.60;99.90;;;;;;4993208;28;19937;-61
2022/04/20 00:06:38;;;;;;;;;;;20.60;99.90;;;;;;4991462;28;19954;-62
2022/04/20 00:09:05;;;;;;;;;;;20.60;99.90;;;;;;4999478;28;19929;-62
2022/04/20 00:11:33;;;;;;;;;;;20.60;99.90;;;;;;5008779;28;19960;-61
2022/04/20 00:14:00;;;;;;;;;;;20.60;99.90;;;;;;5003583;28;19926;-63
2022/04/20 00:16:27;;;;;;;;;;;20.60;99.90;;;;;;4999594;28;19926;-62
2022/04/20 00:18:54;;;;;;;;;;;20.60;99.90;;;;;;4996516;28;20312;-62
2022/04/20 00:21:26;;;;;;;;;;;20.60;99.90;;;;;;4999684;28;19944;-61
2022/04/20 00:23:54;;;;;;;;;;;20.60;99.90;;;;;;4996186;28;20409;-62
2022/04/20 00:26:21;;;;;;;;;;;20.60;99.90;;;;;;4994279;28;19926;-61
2022/04/20 00:28:49;;;;;;;;;;;20.60;99.90;;;;;;5003471;28;19932;-60
2022/04/20 00:31:16;;;;;;;;;;;20.60;99.90;;;;;;4995827;28;19929;-61
2022/04/20 00:33:43;;;;;;;;;;;20.50;99.90;;;;;;4996677;28;19937;-62
2022/04/20 00:36:11;;;;;;;;;;;20.60;99.90;;;;;;5010482;28;20373;-62
2022/04/20 00:38:38;;;;;;;;;;;20.60;99.90;;;;;;4994734;28;20389;-63
2022/04/20 00:41:05;;;;;;;;;;;20.60;99.90;;;;;;5005171;28;19934;-61
2022/04/20 00:43:32;;;;;;;;;;;20.50;99.90;;;;;;5008495;28;19936;-61
2022/04/20 00:46:00;;;;;;;;;;;20.60;99.90;;;;;;5014013;28;20319;-61
2022/04/20 00:48:27;;;;;;;;;;;20.50;99.90;;;;;;5007773;28;19925;-62
2022/04/20 00:50:54;;;;;;;;;;;20.50;99.90;;;;;;4997847;28;19934;-59
2022/04/20 00:53:22;;;;;;;;;;;20.50;99.90;;;;;;4988718;28;20278;-61
2022/04/20 00:55:51;;;;;;;;;;;20.50;99.90;;;;;;4999356;28;19930;-62
2022/04/20 00:58:19;;;;;;;;;;;20.50;99.90;;;;;;4997877;28;19926;-62
2022/04/20 01:00:46;;;;;;;;;;;20.50;99.90;;;;;;5001130;28;19932;-60
2022/04/20 01:03:13;;;;;;;;;;;20.50;99.90;;;;;;5003322;28;19964;-60
2022/04/20 01:06:07;;;;;;;;;;;20.40;99.90;;;;;;4991790;28;19925;-61
2022/04/20 01:08:53;;;;;;;;;;;20.40;99.90;;;;;;5007223;28;19941;-61
2022/04/20 01:11:43;;;;;;;;;;;20.50;99.90;;;;;;5003770;28;20451;-61
2022/04/20 01:14:30;;;;;;;;;;;20.40;99.90;;;;;;4990026;28;20328;-62
2022/04/20 01:17:16;;;;;;;;;;;20.50;99.90;;;;;;5019002;28;19937;-63
2022/04/20 01:19:54;;;;;;;;;;;20.40;99.90;;;;;;4996398;28;19932;-61
2022/04/20 01:22:35;;;;;;;;;;;20.50;99.90;;;;;;4996104;28;19930;-62
2022/04/20 01:25:23;;;;;;;;;;;20.50;99.90;;;;;;5039661;28;19933;-62
2022/04/20 01:28:06;;;;;;;;;;;20.50;99.90;;;;;;4994044;28;19930;-62
2022/04/20 01:31:05;;;;;;;;;;;20.40;99.90;;;;;;4997882;28;19929;-61
2022/04/20 01:33:46;;;;;;;;;;;20.40;99.90;;;;;;4989849;28;19937;-63
2022/04/20 01:36:14;;;;;;;;;;;20.40;99.90;;;;;;5002702;28;19941;-61
2022/04/20 01:38:41;;;;;;;;;;;20.40;99.90;;;;;;4990365;28;20397;-62
2022/04/20 01:41:08;;;;;;;;;;;20.40;99.90;;;;;;5002561;28;19930;-61
2022/04/20 01:43:36;;;;;;;;;;;20.40;99.90;;;;;;4999784;28;20415;-61
2022/04/20 01:46:23;;;;;;;;;;;20.40;99.90;;;;;;5020376;28;19940;-60
2022/04/20 01:49:15;;;;;;;;;;;20.40;99.90;;;;;;4992221;28;19941;-63
2022/04/20 01:52:11;;;;;;;;;;;20.40;99.90;;;;;;5001061;28;19929;-61
2022/04/20 01:54:47;;;;;;;;;;;20.40;99.90;;;;;;5003380;28;20009;-62
2022/04/20 01:57:37;;;;;;;;;;;20.40;99.90;;;;;;4999222;28;19926;-60
2022/04/20 02:00:16;;;;;;;;;;;20.40;99.90;;;;;;4991007;28;19929;-58
2022/04/20 02:02:54;;;;;;;;;;;20.40;99.90;;;;;;5005199;28;19930;-59
2022/04/20 02:05:23;;;;;;;;;;;20.40;99.90;;;;;;4991276;28;19933;-59
2022/04/20 02:08:05;;;;;;;;;;;20.30;99.90;;;;;;4988576;28;19929;-61
2022/04/20 02:10:58;;;;;;;;;;;20.30;99.90;;;;;;4999163;28;19937;-61
2022/04/20 02:13:26;;;;;;;;;;;20.40;99.90;;;;;;5039421;28;20375;-59
2022/04/20 02:15:57;;;;;;;;;;;20.30;99.90;;;;;;5013219;28;19925;-61
2022/04/20 02:18:44;;;;;;;;;;;20.30;99.90;;;;;;5007508;28;19933;-59
2022/04/20 02:21:37;;;;;;;;;;;20.30;99.90;;;;;;4996961;28;19926;-60
2022/04/20 02:24:04;;;;;;;;;;;20.30;99.90;;;;;;4998977;28;20288;-61
2022/04/20 02:26:31;;;;;;;;;;;20.30;99.90;;;;;;5002088;28;20308;-62
2022/04/20 02:28:59;;;;;;;;;;;20.30;99.90;;;;;;4994471;28;19937;-62
2022/04/20 02:31:26;;;;;;;;;;;20.30;99.90;;;;;;4998851;28;19934;-62
2022/04/20 02:33:53;;;;;;;;;;;20.40;99.90;;;;;;4987418;28;20499;-59
2022/04/20 02:36:20;;;;;;;;;;;20.30;99.90;;;;;;5008570;28;19929;-61
2022/04/20 02:38:47;;;;;;;;;;;20.30;99.90;;;;;;4988567;28;19945;-59
2022/04/20 02:41:15;;;;;;;;;;;20.30;99.90;;;;;;5003646;28;19933;-60
2022/04/20 02:43:42;;;;;;;;;;;20.30;99.90;;;;;;4991393;28;20342;-61
2022/04/20 02:46:10;;;;;;;;;;;20.30;99.90;;;;;;4999506;28;19929;-61
2022/04/20 02:48:37;;;;;;;;;;;20.30;99.90;;;;;;4988211;28;19926;-62
2022/04/20 02:51:04;;;;;;;;;;;20.30;99.90;;;;;;4994303;28;19948;-61
2022/04/20 02:53:32;;;;;;;;;;;20.30;99.90;;;;;;4988857;28;19937;-60
2022/04/20 02:56:00;;;;;;;;;;;20.30;99.90;;;;;;4997717;28;20418;-62
2022/04/20 02:58:27;;;;;;;;;;;20.30;99.90;;;;;;4996166;28;19926;-62
2022/04/20 03:00:57;;;;;;;;;;;20.20;99.90;;;;;;5003238;28;20317;-60
2022/04/20 03:03:33;;;;;;;;;;;20.20;99.90;;;;;;5000091;28;19929;-62
2022/04/20 03:06:12;;;;;;;;;;;20.30;99.90;;;;;;4995846;28;19926;-60
2022/04/20 03:08:41;;;;;;;;;;;20.30;99.90;;;;;;4996704;28;19933;-61
2022/04/20 03:11:12;;;;;;;;;;;20.20;99.90;;;;;;5004158;28;19925;-62
2022/04/20 03:13:41;;;;;;;;;;;20.20;99.90;;;;;;4996215;28;19930;-62
2022/04/20 03:16:13;;;;;;;;;;;20.20;99.90;;;;;;5019564;28;19936;-60
2022/04/20 03:18:41;;;;;;;;;;;20.20;99.90;;;;;;5004970;28;19930;-60
2022/04/20 03:21:17;;;;;;;;;;;20.20;99.90;;;;;;4991210;28;19961;-58
2022/04/20 03:23:45;;;;;;;;;;;20.20;99.90;;;;;;4990834;28;19948;-60
2022/04/20 03:26:18;;;;;;;;;;;20.20;99.90;;;;;;4992155;28;19930;-59
2022/04/20 03:29:00;;;;;;;;;;;20.20;99.90;;;;;;4992122;28;20032;-62
2022/04/20 03:31:27;;;;;;;;;;;20.10;99.90;;;;;;4993038;28;19933;-61
2022/04/20 03:33:58;;;;;;;;;;;20.10;99.90;;;;;;5000248;28;20293;-61
2022/04/20 03:36:25;;;;;;;;;;;20.20;99.90;;;;;;4997668;28;19930;-62
2022/04/20 03:38:53;;;;;;;;;;;20.20;99.90;;;;;;4995755;28;19930;-61
2022/04/20 03:41:22;;;;;;;;;;;20.20;99.90;;;;;;5002272;28;19945;-62
2022/04/20 03:43:49;;;;;;;;;;;20.20;99.90;;;;;;4994479;28;19956;-61
2022/04/20 03:46:16;;;;;;;;;;;20.20;99.90;;;;;;5005816;28;19925;-60
2022/04/20 03:48:45;;;;;;;;;;;20.20;99.90;;;;;;4995807;28;19936;-62
2022/04/20 03:51:12;;;;;;;;;;;20.20;99.90;;;;;;5001985;28;19940;-59
2022/04/20 03:53:39;;;;;;;;;;;20.20;99.90;;;;;;5000711;28;20362;-60
2022/04/20 03:56:07;;;;;;;;;;;20.10;99.90;;;;;;5004715;28;19929;-60
2022/04/20 03:58:35;;;;;;;;;;;20.10;99.90;;;;;;5036786;28;19934;-61
2022/04/20 04:01:02;;;;;;;;;;;20.20;99.90;;;;;;5005703;28;19929;-61
2022/04/20 04:03:31;;;;;;;;;;;20.20;99.90;;;;;;4996185;28;20405;-59
2022/04/20 04:06:07;;;;;;;;;;;20.20;99.90;;;;;;5005078;28;19929;-61
2022/04/20 04:08:36;;;;;;;;;;;20.10;99.90;;;;;;4998268;28;19945;-61
2022/04/20 04:11:04;;;;;;;;;;;20.20;99.90;;;;;;5001352;28;19929;-61
2022/04/20 04:13:31;;;;;;;;;;;20.10;99.90;;;;;;5005352;28;20416;-58
2022/04/20 04:15:58;;;;;;;;;;;20.10;99.90;;;;;;5040749;28;19929;-61
2022/04/20 04:18:27;;;;;;;;;;;20.10;99.90;;;;;;5002567;28;19925;-58
2022/04/20 04:20:57;;;;;;;;;;;20.10;99.90;;;;;;5007418;28;19929;-62
2022/04/20 04:23:24;;;;;;;;;;;20.10;99.90;;;;;;4991503;28;19936;-62
2022/04/20 04:26:11;;;;;;;;;;;20.10;99.90;;;;;;4993977;28;19930;-62
2022/04/20 04:28:45;;;;;;;;;;;20.10;99.90;;;;;;4996545;28;19934;-63
2022/04/20 04:31:14;;;;;;;;;;;20.10;99.90;;;;;;5010220;28;19929;-63
2022/04/20 04:33:41;;;;;;;;;;;20.00;99.90;;;;;;5006820;28;20259;-61
2022/04/20 04:36:09;;;;;;;;;;;20.00;99.90;;;;;;5038353;28;19937;-61
2022/04/20 04:38:56;;;;;;;;;;;20.00;99.90;;;;;;4992427;28;20316;-62
2022/04/20 04:41:27;;;;;;;;;;;20.00;99.90;;;;;;5007702;28;19930;-61
2022/04/20 04:43:57;;;;;;;;;;;20.00;99.90;;;;;;4994901;28;19940;-62
2022/04/20 04:49:23;;;;;;;;;;;20.00;99.90;;;;;;4992197;28;19929;-60
2022/04/20 04:51:51;;;;;;;;;;;20.00;99.90;;;;;;5021623;28;19925;-60
2022/04/20 04:54:20;;;;;;;;;;;20.00;99.90;;;;;;4994193;28;19926;-61
2022/04/20 04:56:48;;;;;;;;;;;20.00;99.90;;;;;;5004965;28;19936;-61
2022/04/20 04:59:16;;;;;;;;;;;20.00;99.90;;;;;;5002333;28;19949;-60
2022/04/20 05:01:46;;;;;;;;;;;20.00;99.90;;;;;;5014707;28;19953;-60
2022/04/20 05:04:19;;;;;;;;;;;20.00;99.90;;;;;;4990391;28;19936;-62
2022/04/20 05:06:50;;;;;;;;;;;20.00;99.90;;;;;;5005795;28;19934;-62
2022/04/20 05:09:32;;;;;;;;;;;20.00;99.90;;;;;;5003521;28;19930;-61
2022/04/20 05:11:59;;;;;;;;;;;20.10;99.90;;;;;;4993822;28;19930;-62
2022/04/20 05:14:30;;;;;;;;;;;20.10;99.90;;;;;;5005520;28;19933;-61
2022/04/20 05:16:59;;;;;;;;;;;20.10;99.90;;;;;;5005337;28;19929;-60
2022/04/20 05:19:27;;;;;;;;;;;20.10;99.90;;;;;;4999230;28;19929;-59
2022/04/20 05:21:59;;;;;;;;;;;20.10;99.90;;;;;;5006483;28;19930;-62
2022/04/20 05:24:35;;;;;;;;;;;20.20;99.90;;;;;;4990560;28;19937;-62
2022/04/20 05:27:06;;;;;;;;;;;20.10;99.90;;;;;;4992218;28;19940;-62
2022/04/20 05:29:50;;;;;;;;;;;20.10;99.90;;;;;;5005180;28;19934;-63
2022/04/20 05:32:17;;;;;;;;;;;20.10;99.90;;;;;;5005403;28;20409;-62
2022/04/20 05:34:44;;;;;;;;;;;20.20;99.90;;;;;;5006314;28;20337;-60
2022/04/20 05:42:46;;;;;;;;;;;20.20;99.90;;;;;;5018795;28;19925;-62
2022/04/20 05:45:14;;;;;;;;;;;20.20;99.90;;;;;;5011250;28;19929;-63
2022/04/20 05:47:45;;;;;;;;;;;20.20;99.90;;;;;;5005059;28;19929;-61
2022/04/20 05:50:12;;;;;;;;;;;20.20;99.90;;;;;;4996297;28;19933;-58
2022/04/20 05:52:40;;;;;;;;;;;20.20;99.90;;;;;;5004468;28;19937;-57
2022/04/20 05:55:07;;;;;;;;;;;20.20;99.90;;;;;;5007169;28;20379;-60
2022/04/20 05:57:37;;;;;;;;;;;20.20;99.90;;;;;;5001783;28;19929;-62
2022/04/20 06:00:05;;;;;;;;;;;20.20;99.90;;;;;;5005133;28;19941;-60
2022/04/20 06:02:42;;;;;;;;;;;20.20;99.90;;;;;;5005869;28;19929;-63
2022/04/20 06:05:14;;;;;;;;;;;20.20;99.90;;;;;;5009451;28;20472;-63
2022/04/20 06:07:51;;;;;;;;;;;20.20;99.90;;;;;;5022270;28;19933;-62
2022/04/20 06:10:48;;;;;;;;;;;20.20;99.90;;;;;;4996965;28;19934;-62
2022/04/20 06:13:18;;;;;;;;;;;20.20;99.90;;;;;;5004311;28;19937;-59
2022/04/20 06:16:04;;;;;;;;;;;20.20;99.90;;;;;;5011567;28;19942;-60
2022/04/20 06:18:47;;;;;;;;;;;20.20;99.90;;;;;;5007292;28;19929;-60
2022/04/20 06:21:34;;;;;;;;;;;20.10;99.90;;;;;;4987818;28;19925;-59
2022/04/20 06:24:07;;;;;;;;;;;20.10;99.90;;;;;;5002502;28;19925;-60
2022/04/20 06:26:44;;;;;;;;;;;20.10;99.90;;;;;;4993587;28;20248;-61
2022/04/20 06:29:46;;;;;;;;;;;20.10;99.90;;;;;;4989327;28;19934;-60
2022/04/20 06:32:27;;;;;;;;;;;20.10;99.90;;;;;;4993610;28;19933;-58
2022/04/20 06:35:13;;;;;;;;;;;20.10;99.90;;;;;;4991116;28;19933;-60
2022/04/20 06:38:10;;;;;;;;;;;20.10;99.90;;;;;;4998185;28;19930;-60
2022/04/20 06:40:58;;;;;;;;;;;20.10;99.90;;;;;;5007454;28;20408;-59
2022/04/20 06:43:49;;;;;;;;;;;20.20;99.90;;;;;;4998043;28;19933;-59
2022/04/20 06:46:43;;;;;;;;;;;20.20;99.90;;;;;;5004324;28;19925;-60
2022/04/20 06:49:33;;;;;;;;;;;20.20;99.90;;;;;;4996128;28;19929;-60
2022/04/20 07:00:41;;;;;;;;;;;20.10;99.90;;;;;;5002276;28;19992;-61
2022/04/20 07:03:12;;;;;;;;;;;20.20;99.90;;;;;;5001867;28;19933;-60
2022/04/20 07:06:00;;;;;;;;;;;20.20;99.90;;;;;;4994396;28;20444;-59
2022/04/20 07:08:28;;;;;;;;;;;20.20;99.90;;;;;;4993294;28;20218;-60
2022/04/20 07:11:25;;;;;;;;;;;20.20;99.90;;;;;;4994172;28;19926;-61
2022/04/20 07:13:55;;;;;;;;;;;20.30;99.90;;;;;;5001036;28;19925;-60
2022/04/20 07:16:23;;;;;;;;;;;20.30;99.90;;;;;;5009837;28;19929;-66
2022/04/20 07:19:20;;;;;;;;;;;20.30;99.90;;;;;;4996106;28;19945;-60
2022/04/20 07:22:05;;;;;;;;;;;20.20;99.90;;;;;;5011000;28;20452;-60
2022/04/20 07:24:53;;;;;;;;;;;20.30;99.90;;;;;;4994381;28;19930;-60
2022/04/20 07:27:37;;;;;;;;;;;20.30;99.90;;;;;;5001626;28;20411;-60
2022/04/20 07:30:26;;;;;;;;;;;20.30;99.90;;;;;;5001395;28;19933;-59
2022/04/20 07:33:26;;;;;;;;;;;20.40;99.90;;;;;;4977550;28;19934;-61
2022/04/20 07:36:10;;;;;;;;;;;20.40;99.90;;;;;;4997629;28;19926;-60
2022/04/20 07:39:00;;;;;;;;;;;20.40;99.90;;;;;;4986593;28;20309;-59
2022/04/20 07:41:45;;;;;;;;;;;20.40;99.90;;;;;;5007015;28;20400;-59
2022/04/20 07:44:45;;;;;;;;;;;20.40;99.90;;;;;;4996644;28;19929;-56
2022/04/20 07:47:29;;;;;;;;;;;20.50;99.90;;;;;;4996529;28;19936;-62
2022/04/20 07:50:33;;;;;;;;;;;20.40;99.90;;;;;;5001703;28;19929;-60
2022/04/20 07:53:29;;;;;;;;;;;20.50;99.90;;;;;;4990837;28;19930;-62
2022/04/20 07:56:16;;;;;;;;;;;20.50;99.90;;;;;;4993134;28;20396;-59
2022/04/20 07:58:50;;;;;;;;;;;20.60;99.90;;;;;;5004168;28;19949;-59
2022/04/20 08:01:17;;;;;;;;;;;20.50;99.90;;;;;;5004477;28;20037;-63
2022/04/20 08:03:53;;;;;;;;;;;20.50;99.90;;;;;;5003709;28;19931;-60
2022/04/20 08:06:33;;;;;;;;;;;20.60;99.90;;;;;;5006467;28;19930;-60
2022/04/20 08:09:02;;;;;;;;;;;20.50;99.90;;;;;;4990086;28;19929;-59
2022/04/20 08:11:29;;;;;;;;;;;20.50;99.90;;;;;;5006043;28;19936;-59
2022/04/20 08:14:12;;;;;;;;;;;20.50;99.90;;;;;;5006347;28;19941;-59
2022/04/20 08:16:48;;;;;;;;;;;20.50;99.90;;;;;;5012701;28;19933;-58
2022/04/20 08:19:28;;;;;;;;;;;20.50;99.90;;;;;;5005031;28;19929;-61
2022/04/20 08:22:14;;;;;;;;;;;20.50;99.90;;;;;;5006976;28;19936;-60
2022/04/20 08:24:45;;;;;;;;;;;20.50;99.90;;;;;;5005833;28;19951;-60
2022/04/20 08:27:14;;;;;;;;;;;20.50;99.90;;;;;;5005154;28;20309;-62
2022/04/20 08:29:42;;;;;;;;;;;20.50;99.90;;;;;;5008790;28;19944;-60
2022/04/20 08:32:10;;;;;;;;;;;20.50;99.90;;;;;;5004356;28;19925;-60
2022/04/20 08:34:37;;;;;;;;;;;20.50;99.90;;;;;;4989762;28;19926;-59
2022/04/20 08:37:24;;;;;;;;;;;20.40;99.90;;;;;;4997894;28;19925;-62
2022/04/20 08:39:51;;;;;;;;;;;20.40;99.90;;;;;;5009002;28;20454;-59
2022/04/20 08:42:20;;;;;;;;;;;20.40;99.90;;;;;;5003163;28;19949;-61
2022/04/20 08:44:50;;;;;;;;;;;20.40;99.90;;;;;;5003256;28;19934;-62
2022/04/20 08:47:22;;;;;;;;;;;20.30;99.90;;;;;;5018448;28;19936;-62
2022/04/20 08:49:50;;;;;;;;;;;20.20;99.90;;;;;;5008427;28;20001;-57
2022/04/20 08:55:07;;;;;;;;;;;20.20;99.90;;;;;;5005253;28;19943;-63
2022/04/20 08:57:35;;;;;;;;;;;20.10;99.90;;;;;;5008575;28;20393;-61
2022/04/20 09:00:04;;;;;;;;;;;20.10;99.40;;;;;;5003911;28;19937;-59
2022/04/20 09:02:31;;;;;;;;;;;20.10;99.00;;;;;;5000536;28;19929;-62
2022/04/20 09:04:59;;;;;;;;;;;20.10;98.40;;;;;;4993406;28;20317;-60
2022/04/20 09:07:27;;;;;;;;;;;20.00;97.60;;;;;;5032765;28;19940;-61
2022/04/20 09:09:54;;;;;;;;;;;20.00;96.80;;;;;;5010890;28;19936;-63
2022/04/20 09:12:25;;;;;;;;;;;20.00;96.40;;;;;;5013341;28;19925;-62
2022/04/20 09:14:53;;;;;;;;;;;20.00;96.20;;;;;;5002350;28;19934;-62
2022/04/20 09:17:21;;;;;;;;;;;20.00;95.80;;;;;;5006854;28;20276;-63
2022/04/20 09:19:49;;;;;;;;;;;20.00;95.60;;;;;;5007469;28;19929;-61
2022/04/20 09:22:17;;;;;;;;;;;19.90;95.00;;;;;;5008568;28;19956;-62
2022/04/20 09:24:59;;;;;;;;;;;19.90;94.50;;;;;;4996610;28;19937;-61
2022/04/20 09:27:27;;;;;;;;;;;20.00;93.30;;;;;;5005238;28;19929;-61
2022/04/20 09:29:55;;;;;;;;;;;20.00;92.30;;;;;;5000812;28;19925;-63
2022/04/20 09:32:49;;;;;;;;;;;20.10;92.00;;;;;;5002941;28;19932;-62
2022/04/20 09:35:18;;;;;;;;;;;20.10;92.30;;;;;;5000511;28;19925;-63
2022/04/20 09:38:01;;;;;;;;;;;20.10;92.40;;;;;;5006839;28;20229;-62
2022/04/20 09:40:49;;;;;;;;;;;20.10;92.40;;;;;;5001257;28;19941;-63
2022/04/20 09:43:18;;;;;;;;;;;20.20;92.70;;;;;;4997756;28;19933;-63
2022/04/20 09:46:04;;;;;;;;;;;20.20;93.00;;;;;;5011427;28;19940;-63
2022/04/20 09:51:20;;;;;;;;;;;20.20;93.50;;;;;;5001504;28;19933;-60
2022/04/20 09:53:53;;;;;;;;;;;20.20;93.70;;;;;;5000663;28;19929;-60
2022/04/20 09:56:21;;;;;;;;;;;20.20;93.80;;;;;;5008244;28;19945;-63
2022/04/20 09:59:04;;;;;;;;;;;20.30;94.10;;;;;;4993722;28;19929;-64
2022/04/20 10:01:32;;;;;;;;;;;20.20;94.10;;;;;;4999746;28;19929;-63
2022/04/20 10:04:00;;;;;;;;;;;20.30;94.20;;;;;;4994448;28;19929;-65
2022/04/20 10:06:28;;;;;;;;;;;20.20;94.40;;;;;;5008574;28;19933;-63
2022/04/20 10:08:55;;;;;;;;;;;20.30;94.60;;;;;;5008432;28;19929;-64
2022/04/20 10:11:23;;;;;;;;;;;20.30;94.80;;;;;;4992633;28;19930;-60
2022/04/20 10:16:05;;;;;;;;;;;20.30;94.90;;;;;;4990760;28;19933;-62
2022/04/20 10:16:45;;;;;;;;;;;20.20;95.00;;;;;;5005520;28;19990;-61
2022/04/20 10:19:13;;;;;;;;;;;20.30;95.20;;;;;;4991266;28;20313;-64
2022/04/20 10:21:47;;;;;;;;;;;20.30;95.40;;;;;;5006368;28;19932;-62
2022/04/20 10:24:15;;;;;;;;;;;20.20;95.50;;;;;;4992496;28;19930;-62
2022/04/20 10:26:43;;;;;;;;;;;20.30;95.70;;;;;;5001736;28;19938;-62
2022/04/20 10:29:17;;;;;;;;;;;20.30;95.80;;;;;;4988291;28;19929;-60
2022/04/20 10:31:53;;;;;;;;;;;20.30;96.00;;;;;;4995749;28;19941;-63
2022/04/20 10:34:21;;;;;;;;;;;20.30;96.10;;;;;;5007800;28;19930;-62
2022/04/20 10:37:09;;;;;;;;;;;20.30;96.10;;;;;;4996015;28;19933;-62
2022/04/20 10:39:47;;;;;;;;;;;20.30;96.20;;;;;;4993979;28;20282;-62
2022/04/20 10:42:18;;;;;;;;;;;20.30;96.30;;;;;;5006598;28;19933;-64
2022/04/20 10:44:48;;;;;;;;;;;20.20;96.40;;;;;;4997749;28;19936;-62
2022/04/20 10:47:20;;;;;;;;;;;20.20;96.40;;;;;;5007622;28;19937;-63
2022/04/20 10:49:49;;;;;;;;;;;20.30;96.50;;;;;;4989272;28;19934;-60
2022/04/20 10:52:24;;;;;;;;;;;20.20;96.60;;;;;;5004898;28;19932;-61
2022/04/20 10:54:53;;;;;;;;;;;20.20;96.60;;;;;;5003780;28;19926;-61
2022/04/20 10:57:32;;;;;;;;;;;20.20;96.70;;;;;;4997359;28;19929;-61
2022/04/20 11:00:17;;;;;;;;;;;20.20;96.70;;;;;;4996525;28;19929;-60
2022/04/20 11:03:01;;;;;;;;;;;20.20;96.70;;;;;;5016881;28;19937;-61
2022/04/20 11:05:28;;;;;;;;;;;20.20;96.80;;;;;;4994914;28;19929;-62
2022/04/20 11:08:06;;;;;;;;;;;20.20;96.80;;;;;;5033096;28;19930;-61
2022/04/20 11:10:34;;;;;;;;;;;20.20;96.80;;;;;;4998975;28;20199;-63
2022/04/20 11:19:10;;;;;;;;;;;20.20;96.70;;;;;;5000177;28;20317;-61
2022/04/20 11:22:07;;;;;;;;;;;20.20;96.70;;;;;;4993596;28;19929;-61
2022/04/20 11:24:41;;;;;;;;;;;20.20;96.60;;;;;;4994579;28;19929;-61
2022/04/20 11:27:09;;;;;;;;;;;20.20;96.70;;;;;;4993109;28;19929;-62
2022/04/20 11:29:36;;;;;;;;;;;20.20;96.80;;;;;;4990728;28;19926;-62
2022/04/20 11:32:05;;;;;;;;;;;20.20;96.80;;;;;;5006352;28;20312;-60
2022/04/20 11:34:42;;;;;;;;;;;20.20;96.90;;;;;;4997876;28;19929;-62
2022/04/20 11:37:09;;;;;;;;;;;20.20;96.90;;;;;;5006769;28;19926;-61
2022/04/20 11:39:37;;;;;;;;;;;20.20;96.90;;;;;;5013252;28;19925;-59
2022/04/20 11:42:05;;;;;;;;;;;20.20;96.90;;;;;;4992633;28;19933;-60
2022/04/20 11:44:32;;;;;;;;;;;20.20;96.90;;;;;;5010368;28;19936;-62
2022/04/20 11:47:03;;;;;;;;;;;20.10;97.20;;;;;;5003911;28;19930;-60
2022/04/20 11:49:36;;;;;;;;;;;20.10;97.00;;;;;;4992738;28;20286;-62
2022/04/20 11:52:08;;;;;;;;;;;20.10;97.10;;;;;;4993518;28;20208;-63
2022/04/20 11:54:36;;;;;;;;;;;20.20;97.10;;;;;;5014879;28;19945;-60
2022/04/20 11:57:15;;;;;;;;;;;20.10;97.10;;;;;;4999660;28;19936;-63
2022/04/20 11:59:44;;;;;;;;;;;20.10;97.10;;;;;;5005481;28;19925;-62
2022/04/20 12:02:14;;;;;;;;;;;20.10;97.20;;;;;;5006674;28;19936;-63
2022/04/20 12:04:42;;;;;;;;;;;20.20;97.10;;;;;;5000842;28;20317;-60
2022/04/20 12:07:13;;;;;;;;;;;20.10;97.20;;;;;;4999316;28;20033;-61
2022/04/20 12:09:44;;;;;;;;;;;20.10;97.20;;;;;;4996808;28;19934;-62
2022/04/20 12:12:18;;;;;;;;;;;20.10;97.20;;;;;;5004487;28;20193;-60
2022/04/20 12:14:46;;;;;;;;;;;20.10;97.30;;;;;;5006649;28;19929;-61
2022/04/20 12:17:14;;;;;;;;;;;20.10;97.30;;;;;;5023917;28;19930;-61
2022/04/20 12:19:44;;;;;;;;;;;20.10;97.30;;;;;;5005155;28;19941;-62
2022/04/20 12:22:12;;;;;;;;;;;20.10;97.30;;;;;;4994949;28;19941;-62
2022/04/20 12:24:41;;;;;;;;;;;20.10;97.30;;;;;;4999859;28;20054;-62
2022/04/20 12:27:19;;;;;;;;;;;20.10;97.40;;;;;;4992224;28;19941;-60
2022/04/20 12:29:52;;;;;;;;;;;20.10;97.40;;;;;;5001997;28;19937;-61
2022/04/20 12:32:30;;;;;;;;;;;20.10;97.30;;;;;;4990797;28;19929;-62
2022/04/20 12:35:01;;;;;;;;;;;20.10;97.40;;;;;;5006344;28;19930;-61
2022/04/20 12:37:33;;;;;;;;;;;20.10;97.30;;;;;;5007972;28;20238;-61
2022/04/20 12:40:19;;;;;;;;;;;20.10;97.30;;;;;;5006651;28;19928;-62
2022/04/20 12:42:58;;;;;;;;;;;20.10;97.30;;;;;;4995660;28;19936;-62
2022/04/20 12:45:28;;;;;;;;;;;20.10;97.20;;;;;;5014525;28;19929;-62
2022/04/20 12:48:06;;;;;;;;;;;20.10;97.30;;;;;;5006817;28;19937;-62
2022/04/20 12:50:34;;;;;;;;;;;20.10;97.20;;;;;;5002339;28;19988;-61
2022/04/20 12:53:01;;;;;;;;;;;20.10;97.20;;;;;;4988310;28;19929;-63
2022/04/20 12:55:42;;;;;;;;;;;20.10;97.10;;;;;;4986034;28;19930;-62
2022/04/20 13:03:47;;;;;;;;;;;20.10;97.50;;;;;;4983318;28;19933;-60
2022/04/20 13:06:17;;;;;;;;;;;20.10;97.20;;;;;;4975307;28;20178;-62
2022/04/20 13:08:46;;;;;;;;;;;20.10;97.40;;;;;;4977325;28;19937;-63
2022/04/20 13:11:15;;;;;;;;;;;20.20;97.40;;;;;;4983585;28;19930;-63
2022/04/20 13:14:02;;;;;;;;;;;20.20;97.40;;;;;;4975272;28;19937;-63
2022/04/20 13:16:30;;;;;;;;;;;20.20;97.30;;;;;;4989264;28;19937;-62
2022/04/20 13:18:57;;;;;;;;;;;20.30;97.20;;;;;;4974146;28;19937;-62
2022/04/20 13:21:24;;;;;;;;;;;20.30;97.20;;;;;;4978300;28;19926;-61
2022/04/20 13:23:52;;;;;;;;;;;20.30;97.10;;;;;;4981921;28;20384;-62
2022/04/20 13:29:06;;;;;;;;;;;20.40;97.00;;;;;;4975764;28;19941;-62
2022/04/20 13:31:33;;;;;;;;;;;20.40;96.90;;;;;;4974871;28;19937;-62
2022/04/20 13:34:00;;;;;;;;;;;20.50;96.80;;;;;;4970476;28;20460;-62
2022/04/20 13:36:28;;;;;;;;;;;20.50;96.70;;;;;;4985414;28;19933;-62
2022/04/20 13:38:57;;;;;;;;;;;20.60;96.60;;;;;;4988285;28;19936;-63
2022/04/20 13:41:24;;;;;;;;;;;20.60;96.40;;;;;;4989485;28;19944;-63
2022/04/20 13:43:52;;;;;;;;;;;20.60;96.30;;;;;;4983989;28;20036;-62
2022/04/20 13:46:20;;;;;;;;;;;20.70;96.30;;;;;;4993967;28;20342;-63
2022/04/20 13:48:47;;;;;;;;;;;20.70;96.10;;;;;;4980766;28;19977;-62
2022/04/20 13:51:14;;;;;;;;;;;20.70;96.30;;;;;;4986499;28;19930;-63
2022/04/20 13:53:41;;;;;;;;;;;20.80;95.90;;;;;;5000317;28;19930;-62
2022/04/20 13:56:11;;;;;;;;;;;20.90;95.80;;;;;;5000356;28;19940;-61
2022/04/20 13:58:38;;;;;;;;;;;20.90;95.70;;;;;;4995890;28;19929;-61
2022/04/20 14:01:05;;;;;;;;;;;20.90;95.50;;;;;;4993414;28;19929;-61
2022/04/20 14:03:39;;;;;;;;;;;21.00;95.40;;;;;;5004824;28;19933;-60
2022/04/20 14:06:06;;;;;;;;;;;21.00;95.30;;;;;;5014683;28;20380;-63
2022/04/20 14:08:33;;;;;;;;;;;21.10;95.20;;;;;;5010484;28;19930;-62
2022/04/20 14:11:01;;;;;;;;;;;21.10;95.10;;;;;;5016731;28;19929;-62
2022/04/20 14:13:28;;;;;;;;;;;21.10;95.00;;;;;;4989736;28;20411;-61
2022/04/20 14:16:00;;;;;;;;;;;21.20;94.90;;;;;;5001873;28;19929;-61
2022/04/20 14:18:28;;;;;;;;;;;21.20;94.80;;;;;;4996428;28;19925;-62
2022/04/20 14:20:55;;;;;;;;;;;21.20;94.70;;;;;;4998019;28;19925;-65
2022/04/20 14:23:22;;;;;;;;;;;21.30;94.60;;;;;;5000959;28;19926;-64
2022/04/20 14:34:08;;;;;;;;;;;21.40;94.20;;;;;;5000753;28;19932;-61
2022/04/20 14:36:39;;;;;;;;;;;21.50;94.20;;;;;;5010426;28;19930;-63
2022/04/20 14:39:06;;;;;;;;;;;21.50;94.10;;;;;;4994206;28;19929;-62
2022/04/20 14:41:33;;;;;;;;;;;21.50;94.00;;;;;;5006786;28;19937;-61
2022/04/20 14:44:01;;;;;;;;;;;21.50;94.00;;;;;;4999387;28;19945;-63
2022/04/20 14:46:28;;;;;;;;;;;21.60;94.10;;;;;;5009881;28;20428;-63
2022/04/20 14:48:55;;;;;;;;;;;21.60;93.80;;;;;;4992981;28;20401;-62
2022/04/20 14:51:22;;;;;;;;;;;21.70;93.70;;;;;;4995505;28;19929;-61
2022/04/20 14:53:50;;;;;;;;;;;21.70;93.60;;;;;;4987578;28;19925;-61
2022/04/20 14:56:17;;;;;;;;;;;21.70;93.60;;;;;;5000935;28;19936;-61
2022/04/20 14:58:44;;;;;;;;;;;21.80;93.50;;;;;;4987735;28;19937;-62
2022/04/20 15:01:13;;;;;;;;;;;21.80;93.40;;;;;;4996735;28;20424;-62
2022/04/20 15:03:41;;;;;;;;;;;21.80;93.40;;;;;;4987554;28;19937;-63
2022/04/20 15:06:08;;;;;;;;;;;21.80;93.30;;;;;;4999751;28;20001;-62
2022/04/20 15:08:36;;;;;;;;;;;21.90;93.20;;;;;;4994729;28;19930;-61
2022/04/20 15:11:03;;;;;;;;;;;21.90;93.10;;;;;;4988126;28;20360;-62
2022/04/20 15:13:31;;;;;;;;;;;21.90;93.10;;;;;;4994169;28;20372;-62
2022/04/20 15:16:00;;;;;;;;;;;21.90;93.10;;;;;;4997314;28;19940;-61
2022/04/20 15:18:28;;;;;;;;;;;21.90;93.00;;;;;;5001231;28;19930;-61
2022/04/20 15:20:55;;;;;;;;;;;21.90;93.00;;;;;;4999136;28;19930;-62
2022/04/20 15:23:43;;;;;;;;;;;21.80;93.00;;;;;;4989612;28;19926;-63
2022/04/20 15:26:11;;;;;;;;;;;21.80;93.10;;;;;;5000461;28;19930;-63
2022/04/20 15:28:39;;;;;;;;;;;21.70;93.10;;;;;;5000473;28;19930;-63
2022/04/20 15:31:08;;;;;;;;;;;21.60;93.10;;;;;;4989099;28;19934;-61
2022/04/20 15:33:36;;;;;;;;;;;21.50;93.20;;;;;;4988948;28;19960;-62
2022/04/20 15:36:03;;;;;;;;;;;21.50;93.20;;;;;;4990827;28;20316;-62